Latest Weather Observations for Parndana

IDS60801

Issued at 1:05 pm CST Friday 19 September 2014 (issued every 30 minutes, with the page automatically refreshed every 10 minutes)

About weather observations | Map of weather stations | Latest weather observations for SA | Other Formats
Station Details ID: 022843 Name: PARNDANA CFS AWS Lat: -35.79 Lon: 137.25 Height: 165.0 m
Data from the previous 72 hours. | See also: Recent months at Parndana
Date/Time
CST
Temp
°C
App
Temp
°C
Dew
Point
Rel
Hum
%
Delta-T
°C
Wind Press
QNH
hPa
Press
MSL
hPa
Rain
since 9 am
mm
Dir
 
Spd
km/h
Gust
km/h
Spd
kts
Gust
kts
19/01:00pm 14.3 10.3 6.6 60 3.8 NE 17 20 9 11 - - 0.0
19/12:30pm 14.4 10.9 7.2 62 3.6 NE 15 24 8 13 - - 0.0
19/12:00pm 14.2 10.6 6.8 61 3.6 NE 15 22 8 12 - - 0.0
19/11:30am 13.9 10.0 7.0 63 3.4 ENE 17 22 9 12 - - 0.0
19/11:00am 13.8 10.0 7.6 66 3.1 E 17 30 9 16 - - 0.0
19/10:30am 13.1 9.4 6.2 63 3.3 NE 15 22 8 12 - - 0.0
19/10:00am 12.4 8.2 7.5 72 2.4 ENE 19 24 10 13 - - 0.0
19/09:30am 12.1 8.3 7.6 74 2.2 ENE 17 24 9 13 - - 0.0
19/09:00am 11.6 7.4 7.3 75 2.1 ENE 19 24 10 13 - - 0.0
19/08:30am 11.2 7.2 8.1 81 1.5 ENE 19 24 10 13 - - 0.0
19/08:00am 10.1 7.2 8.2 88 0.9 ENE 13 17 7 9 - - 0.0
19/07:30am 8.2 5.6 6.3 88 0.9 ENE 9 13 5 7 - - 0.0
19/07:00am 6.5 4.1 5.1 91 0.6 E 7 11 4 6 - - 0.0
19/06:30am 5.3 2.3 4.1 92 0.5 E 9 9 5 5 - - 0.0
19/06:00am 4.9 2.3 4.3 96 0.3 E 7 11 4 6 - - 0.0
19/05:30am 4.3 1.8 3.7 96 0.3 E 6 7 3 4 - - 0.0
19/05:00am 4.6 2.1 4.0 96 0.3 E 6 6 3 3 - - 0.0
19/04:30am 4.1 1.9 3.1 93 0.4 E 4 6 2 3 - - 0.0
19/04:00am 5.4 3.0 4.2 92 0.5 E 6 7 3 4 - - 0.0
19/03:30am 6.0 3.7 4.8 92 0.5 ESE 6 7 3 4 - - 0.0
19/03:00am 5.7 3.4 4.8 94 0.4 SE 6 7 3 4 - - 0.0
19/02:30am 5.6 3.3 4.7 94 0.4 SE 6 7 3 4 - - 0.0
19/02:00am 5.9 3.6 5.0 94 0.4 SE 6 7 3 4 - - 0.0
19/01:30am 6.0 3.8 5.1 94 0.4 SE 6 7 3 4 - - 0.0
19/01:00am 5.6 3.7 4.9 95 0.3 SE 4 6 2 3 - - 0.0
19/12:30am 5.3 3.7 4.6 95 0.3 SE 2 4 1 2 - - 0.0
19/12:00am 4.6 2.4 3.6 93 0.4 SE 4 4 2 2 - - 0.0
 
Date/Time
CST
Temp
°C
App
Temp
°C
Dew
Point
Rel
Hum
%
Delta-T
°C
Wind Press
QNH
hPa
Press
MSL
hPa
Rain
since 9 am
mm
Dir
 
Spd
km/h
Gust
km/h
Spd
kts
Gust
kts
18/11:30pm 5.5 3.0 4.8 95 0.3 SSE 7 7 4 4 - - 0.0
18/11:00pm 5.5 3.0 4.6 94 0.4 SE 7 7 4 4 - - 0.0
18/10:30pm 5.4 3.0 4.4 93 0.4 S 6 7 3 4 - - 0.0
18/10:00pm 4.6 1.4 3.1 90 0.6 SSE 9 11 5 6 - - 0.0
18/09:30pm 6.1 3.1 4.1 87 0.9 ESE 9 9 5 5 - - 0.0
18/09:00pm 7.6 5.5 5.6 87 0.9 ESE 6 7 3 4 - - 0.0
18/08:30pm 7.8 5.5 5.8 87 0.9 ESE 7 7 4 4 - - 0.0
18/08:00pm 7.8 5.7 5.8 87 0.9 ESE 6 7 3 4 - - 0.0
18/07:30pm 8.4 6.2 6.0 85 1.1 ESE 7 7 4 4 - - 0.0
18/07:00pm 9.2 7.1 6.6 84 1.2 SE 7 9 4 5 - - 0.0
18/06:30pm 10.0 7.2 7.1 82 1.4 SE 11 17 6 9 - - 0.0
18/06:00pm 10.6 7.3 6.6 76 1.9 SE 13 19 7 10 - - 0.0
18/05:30pm 11.3 8.1 7.0 75 2.1 SSE 13 17 7 9 - - 0.0
18/05:00pm 11.4 7.7 6.3 71 2.4 S 15 19 8 10 - - 0.0
18/04:30pm 11.7 7.8 5.3 65 3.0 SSE 15 20 8 11 - - 0.0
18/04:00pm 12.1 7.9 5.5 64 3.1 S 17 22 9 12 - - 0.0
18/03:30pm 13.1 9.1 6.7 65 3.1 S 17 22 9 12 - - 0.0
18/03:00pm 13.4 9.0 6.5 63 3.3 SSE 19 24 10 13 - - 0.0
18/02:30pm 13.3 8.9 7.3 67 2.9 S 20 28 11 15 - - 0.0
18/02:00pm 14.3 10.9 9.1 71 2.7 SSE 17 24 9 13 - - 0.0
18/01:30pm 12.8 7.7 7.5 70 2.6 S 24 28 13 15 - - 0.0
18/01:00pm 13.5 10.1 9.0 74 2.3 SSE 17 24 9 13 - - 0.0
18/12:30pm 12.3 9.3 5.9 65 3.0 SSE 11 20 6 11 - - 0.0
18/12:00pm 12.4 9.5 6.5 67 2.8 ESE 11 17 6 9 - - 0.0
18/11:30am 11.1 7.0 6.3 72 2.3 S 17 24 9 13 - - 0.0
18/11:00am 11.8 8.0 7.5 75 2.1 SSE 17 20 9 11 - - 0.0
18/10:30am 11.1 7.3 7.4 78 1.8 S 17 24 9 13 - - 0.0
18/10:00am 12.7 10.5 6.1 64 3.1 S 7 13 4 7 - - 0.0
18/09:30am 12.0 10.5 5.2 63 3.2 E 2 4 1 2 - - 0.0
18/09:00am 10.4 8.8 6.5 77 1.8 NNW 4 6 2 3 - - 0.6
18/08:30am 9.8 8.5 6.0 77 1.8 N 2 4 1 2 - - 0.6
18/08:00am 9.1 7.7 7.2 88 0.9 NW 4 7 2 4 - - 0.6
18/07:30am 8.3 5.2 7.1 92 0.6 SW 13 19 7 10 - - 0.6
18/07:00am 8.0 5.6 6.8 92 0.6 SW 9 11 5 6 - - 0.6
18/06:30am 7.6 5.1 6.4 92 0.6 WSW 9 13 5 7 - - 0.6
18/06:00am 7.3 5.6 5.9 91 0.6 WSW 4 6 2 3 - - 0.6
18/05:30am 7.8 6.9 6.1 89 0.8 CALM 0 2 0 1 - - 0.6
18/05:00am 8.0 6.4 6.3 89 0.8 SE 4 6 2 3 - - 0.6
18/04:30am 7.7 6.1 6.5 92 0.6 S 4 6 2 3 - - 0.6
18/04:00am 7.6 5.1 6.4 92 0.6 S 9 13 5 7 - - 0.6
18/03:30am 7.9 5.1 7.0 94 0.4 SW 11 13 6 7 - - 0.4
18/03:00am 7.8 5.4 6.9 94 0.4 WSW 9 13 5 7 - - 0.2
18/02:30am 7.7 5.2 6.6 93 0.5 W 9 11 5 6 - - 0.2
18/02:00am 7.8 5.7 6.7 93 0.5 W 7 9 4 5 - - 0.2
18/01:30am 7.7 5.6 6.6 93 0.5 W 7 9 4 5 - - 0.2
18/01:00am 7.9 5.1 6.8 93 0.5 WSW 11 17 6 9 - - 0.2
18/12:30am 8.0 5.1 6.6 91 0.7 W 11 17 6 9 - - 0.2
18/12:00am 7.4 4.6 5.0 85 1.1 W 9 9 5 5 - - 0.2
 
Date/Time
CST
Temp
°C
App
Temp
°C
Dew
Point
Rel
Hum
%
Delta-T
°C
Wind Press
QNH
hPa
Press
MSL
hPa
Rain
since 9 am
mm
Dir
 
Spd
km/h
Gust
km/h
Spd
kts
Gust
kts
17/11:30pm 8.0 5.7 5.8 86 1.0 W 7 11 4 6 - - 0.2
17/11:00pm 7.2 4.3 4.9 85 1.0 W 9 11 5 6 - - 0.2
17/10:30pm 7.5 5.0 4.6 82 1.3 W 7 7 4 4 - - 0.2
17/10:00pm 7.3 4.7 4.1 80 1.4 W 7 9 4 5 - - 0.2
17/09:30pm 7.6 5.0 4.2 79 1.5 WNW 7 7 4 4 - - 0.2
17/09:00pm 7.4 4.9 3.6 77 1.6 NW 6 7 3 4 - - 0.2
17/08:30pm 7.2 4.4 3.3 76 1.7 WSW 7 9 4 5 - - 0.2
17/08:00pm 8.1 4.1 3.0 70 2.2 SW 13 19 7 10 - - 0.2
17/07:30pm 7.1 4.2 2.4 72 2.0 SW 7 9 4 5 - - 0.2
17/07:00pm 7.7 4.8 2.8 71 2.1 SW 7 9 4 5 - - 0.2
17/06:30pm 8.2 5.4 2.2 66 2.5 SSW 6 7 3 4 - - 0.2
17/06:00pm 8.5 4.9 2.9 68 2.4 SSW 11 15 6 8 - - 0.2
17/05:30pm 10.7 7.2 3.3 60 3.3 S 11 17 6 9 - - 0.2
17/05:00pm 10.9 6.3 3.7 61 3.2 SSW 17 22 9 12 - - 0.2
17/04:30pm 11.8 8.0 4.1 59 3.5 S 13 17 7 9 - - 0.2
17/04:00pm 12.0 7.8 4.0 58 3.6 S 15 22 8 12 - - 0.2
17/03:30pm 11.8 7.0 4.5 61 3.3 SSW 19 24 10 13 - - 0.2
17/03:00pm 11.7 7.2 4.4 61 3.3 S 17 22 9 12 - - 0.2
17/02:30pm 11.9 7.1 4.6 61 3.3 S 19 28 10 15 - - 0.2
17/02:00pm 11.9 7.0 5.1 63 3.2 S 20 30 11 16 - - 0.2
17/01:30pm 12.1 7.4 5.3 63 3.2 S 19 26 10 14 - - 0.2
17/01:00pm 12.5 8.2 6.8 68 2.8 S 19 28 10 15 - - 0.2
17/12:30pm 13.2 8.3 5.1 58 3.8 SSW 20 28 11 15 - - 0.0
17/12:00pm 12.2 6.4 4.4 59 3.6 SSW 24 33 13 18 - - 0.0
17/11:30am 12.0 7.1 5.2 63 3.2 SSW 20 28 11 15 - - 0.0
17/11:00am 12.5 7.6 5.0 60 3.5 SSW 20 30 11 16 - - 0.0
17/10:30am 12.7 7.9 5.4 61 3.4 SW 20 30 11 16 - - 0.0
17/10:00am 12.0 6.8 5.4 64 3.1 SSW 22 32 12 17 - - 0.0
17/09:30am 11.6 7.3 7.7 77 1.9 SSW 20 30 11 16 - - 0.0
17/09:00am 11.7 7.4 7.8 77 1.9 SSW 20 28 11 15 - - 0.8
17/08:30am 11.0 7.2 7.7 80 1.6 SSW 17 26 9 14 - - 0.8
17/08:00am 9.9 5.8 7.8 87 1.0 SSW 19 26 10 14 - - 0.8
17/07:30am 9.0 6.4 7.8 92 0.6 SW 11 15 6 8 - - 0.8
17/07:00am 8.6 5.2 7.5 93 0.5 SW 15 19 8 10 - - 0.8
17/06:30am 7.8 4.5 6.4 91 0.6 WSW 13 19 7 10 - - 0.8
17/06:00am 8.2 4.3 7.1 93 0.5 SW 17 26 9 14 - - 0.8
17/05:30am 6.6 3.5 5.7 94 0.4 SW 11 11 6 6 - - 0.6
17/05:00am 7.2 4.2 6.1 93 0.5 WSW 11 13 6 7 - - 0.6
17/04:30am 7.8 4.6 6.7 93 0.5 WSW 13 17 7 9 - - 0.6
17/04:00am 6.1 3.3 5.2 94 0.4 W 9 13 5 7 - - 0.6
17/03:30am 6.3 3.1 5.1 92 0.5 W 11 11 6 6 - - 0.6
17/03:00am 7.8 4.5 6.4 91 0.6 WSW 13 17 7 9 - - 0.6
17/02:30am 7.9 4.8 7.1 95 0.4 SW 13 17 7 9 - - 0.4
17/02:00am 7.0 3.6 6.1 94 0.4 W 13 15 7 8 - - 0.4
17/01:30am 7.7 4.4 6.6 93 0.5 W 13 17 7 9 - - 0.4
17/01:00am 8.3 4.8 7.1 92 0.6 W 15 20 8 11 - - 0.4
17/12:30am 8.8 5.0 7.7 93 0.5 W 17 22 9 12 - - 0.2
17/12:00am 8.5 5.0 7.4 93 0.5 W 15 19 8 10 - - 0.2
 
Date/Time
CST
Temp
°C
App
Temp
°C
Dew
Point
Rel
Hum
%
Delta-T
°C
Wind Press
QNH
hPa
Press
MSL
hPa
Rain
since 9 am
mm
Dir
 
Spd
km/h
Gust
km/h
Spd
kts
Gust
kts
16/11:30pm 8.2 4.7 7.1 93 0.5 W 15 19 8 10 - - 0.0
16/11:00pm 6.9 2.9 5.1 88 0.8 W 15 17 8 9 - - 0.0
16/10:30pm 7.2 3.3 5.3 88 0.9 WNW 15 17 8 9 - - 0.0
16/10:00pm 6.3 3.3 4.0 85 1.0 WNW 9 11 5 6 - - 0.0
16/09:30pm 7.8 4.6 5.1 83 1.2 WNW 11 13 6 7 - - 0.0
16/09:00pm 7.7 4.8 4.8 82 1.3 W 9 11 5 6 - - 0.0
16/08:30pm 10.0 6.9 5.4 73 2.1 W 11 15 6 8 - - 0.0
16/08:00pm 10.2 7.1 5.4 72 2.2 WSW 11 15 6 8 - - 0.0
16/07:30pm 10.1 7.0 5.5 73 2.1 SW 11 20 6 11 - - 0.0
16/07:00pm 10.0 7.0 5.8 75 1.9 SW 11 15 6 8 - - 0.0
16/06:30pm 10.3 6.1 5.9 74 2.0 SW 17 24 9 13 - - 0.0
16/06:00pm 10.7 6.8 5.5 70 2.4 WSW 15 20 8 11 - - 0.0
16/05:30pm 10.9 6.0 5.2 68 2.6 SW 20 32 11 17 - - 0.0
16/05:00pm 11.4 6.8 6.3 71 2.4 SW 20 32 11 17 - - 0.0
16/04:30pm 11.8 7.3 7.1 73 2.3 SW 20 26 11 14 - - 0.0
16/04:00pm 12.2 7.5 7.7 74 2.2 SW 22 30 12 16 - - 0.0
16/03:30pm 12.7 7.6 7.6 71 2.5 SW 24 35 13 19 - - 0.0
16/03:00pm 14.1 8.6 9.1 72 2.6 WSW 28 35 15 19 - - 0.0
16/02:30pm 13.9 9.7 8.1 68 2.9 WSW 20 28 11 15 - - 0.0
16/02:00pm 14.5 10.4 8.7 68 3.0 WSW 20 32 11 17 - - 0.0
16/01:30pm 14.1 9.5 8.3 68 2.9 WSW 22 35 12 19 - - 0.0

Other Formats:

Comma delimited format used in spreadsheet applications
http://www.bom.gov.au/fwo/IDS60801/IDS60801.94807.axf

JavaScript Object Notation format (JSON) in row-major order
http://www.bom.gov.au/fwo/IDS60801/IDS60801.94807.json